sensor_id;sensor_type;location;lat;lon;timestamp;pressure;altitude;pressure_sealevel;temperature;humidity
21623;BME280;10973;46.706;12.340;2022-10-16T00:01:42;87772.50;;;10.77;57.26
21623;BME280;10973;46.706;12.340;2022-10-16T00:04:10;87761.53;;;10.74;57.29
21623;BME280;10973;46.706;12.340;2022-10-16T00:06:38;87768.34;;;10.75;57.47
21623;BME280;10973;46.706;12.340;2022-10-16T00:09:06;87772.81;;;10.71;57.24
21623;BME280;10973;46.706;12.340;2022-10-16T00:11:37;87773.97;;;10.74;57.17
21623;BME280;10973;46.706;12.340;2022-10-16T00:14:12;87769.06;;;10.72;57.08
21623;BME280;10973;46.706;12.340;2022-10-16T00:16:40;87772.03;;;10.67;57.30
21623;BME280;10973;46.706;12.340;2022-10-16T00:19:10;87783.31;;;10.68;57.36
21623;BME280;10973;46.706;12.340;2022-10-16T00:21:38;87776.53;;;10.67;57.56
21623;BME280;10973;46.706;12.340;2022-10-16T00:24:08;87777.34;;;10.71;57.38
21623;BME280;10973;46.706;12.340;2022-10-16T00:26:37;87778.13;;;10.75;57.36
21623;BME280;10973;46.706;12.340;2022-10-16T00:29:05;87774.00;;;10.77;57.19
21623;BME280;10973;46.706;12.340;2022-10-16T00:31:34;87778.19;;;10.82;57.30
21623;BME280;10973;46.706;12.340;2022-10-16T00:34:01;87776.28;;;10.79;57.48
21623;BME280;10973;46.706;12.340;2022-10-16T00:36:29;87784.19;;;10.79;57.55
21623;BME280;10973;46.706;12.340;2022-10-16T00:38:57;87781.97;;;10.81;57.60
21623;BME280;10973;46.706;12.340;2022-10-16T00:41:30;87779.72;;;10.83;57.91
21623;BME280;10973;46.706;12.340;2022-10-16T00:44:01;87789.13;;;10.84;58.07
21623;BME280;10973;46.706;12.340;2022-10-16T00:49:13;87794.41;;;10.84;58.10
21623;BME280;10973;46.706;12.340;2022-10-16T00:51:47;87803.09;;;10.88;58.00
21623;BME280;10973;46.706;12.340;2022-10-16T00:54:29;87796.72;;;10.89;58.22
21623;BME280;10973;46.706;12.340;2022-10-16T00:57:02;87787.75;;;10.94;58.34
21623;BME280;10973;46.706;12.340;2022-10-16T01:02:04;87800.22;;;11.00;58.43
21623;BME280;10973;46.706;12.340;2022-10-16T01:04:38;87801.41;;;11.03;58.53
21623;BME280;10973;46.706;12.340;2022-10-16T01:07:33;87807.44;;;11.03;58.77
21623;BME280;10973;46.706;12.340;2022-10-16T01:10:09;87805.59;;;11.07;58.77
21623;BME280;10973;46.706;12.340;2022-10-16T01:12:59;87806.34;;;11.08;58.64
21623;BME280;10973;46.706;12.340;2022-10-16T01:18:33;87808.66;;;11.13;58.53
21623;BME280;10973;46.706;12.340;2022-10-16T01:21:12;87809.41;;;11.13;59.10
21623;BME280;10973;46.706;12.340;2022-10-16T01:32:36;87818.91;;;11.21;59.06
21623;BME280;10973;46.706;12.340;2022-10-16T01:35:28;87824.19;;;11.21;59.17
21623;BME280;10973;46.706;12.340;2022-10-16T01:38:21;87827.22;;;11.23;59.05
21623;BME280;10973;46.706;12.340;2022-10-16T01:41:00;87832.88;;;11.25;59.32
21623;BME280;10973;46.706;12.340;2022-10-16T01:44:08;87829.16;;;11.30;59.30
21623;BME280;10973;46.706;12.340;2022-10-16T01:46:43;87846.53;;;11.31;59.65
21623;BME280;10973;46.706;12.340;2022-10-16T01:49:13;87851.06;;;11.34;59.51
21623;BME280;10973;46.706;12.340;2022-10-16T01:51:44;87859.41;;;11.39;59.47
21623;BME280;10973;46.706;12.340;2022-10-16T01:54:16;87859.81;;;11.41;59.63
21623;BME280;10973;46.706;12.340;2022-10-16T01:56:47;87865.84;;;11.42;59.43
21623;BME280;10973;46.706;12.340;2022-10-16T01:59:21;87858.72;;;11.42;59.67
21623;BME280;10973;46.706;12.340;2022-10-16T02:01:55;87866.63;;;11.42;59.82
21623;BME280;10973;46.706;12.340;2022-10-16T02:04:29;87870.38;;;11.45;59.99
21623;BME280;10973;46.706;12.340;2022-10-16T02:06:59;87869.28;;;11.46;59.93
21623;BME280;10973;46.706;12.340;2022-10-16T02:09:26;87867.81;;;11.48;60.05
21623;BME280;10973;46.706;12.340;2022-10-16T02:11:57;87863.31;;;11.53;60.07
21623;BME280;10973;46.706;12.340;2022-10-16T02:14:26;87861.81;;;11.55;60.06
21623;BME280;10973;46.706;12.340;2022-10-16T02:16:54;87853.53;;;11.57;59.85
21623;BME280;10973;46.706;12.340;2022-10-16T02:19:22;87853.59;;;11.60;60.16
21623;BME280;10973;46.706;12.340;2022-10-16T02:22:00;87857.72;;;11.61;60.39
21623;BME280;10973;46.706;12.340;2022-10-16T02:27:47;87853.59;;;11.64;60.32
21623;BME280;10973;46.706;12.340;2022-10-16T02:30:36;87858.53;;;11.65;60.58
21623;BME280;10973;46.706;12.340;2022-10-16T02:33:10;87853.25;;;11.65;60.51
21623;BME280;10973;46.706;12.340;2022-10-16T02:35:40;87855.94;;;11.69;60.65
21623;BME280;10973;46.706;12.340;2022-10-16T02:38:09;87855.97;;;11.72;60.67
21623;BME280;10973;46.706;12.340;2022-10-16T02:40:38;87849.94;;;11.72;60.80
21623;BME280;10973;46.706;12.340;2022-10-16T02:43:06;87844.66;;;11.72;60.83
21623;BME280;10973;46.706;12.340;2022-10-16T02:45:33;87846.84;;;11.66;60.72
21623;BME280;10973;46.706;12.340;2022-10-16T02:48:01;87850.66;;;11.69;60.64
21623;BME280;10973;46.706;12.340;2022-10-16T02:50:28;87849.84;;;11.65;60.60
21623;BME280;10973;46.706;12.340;2022-10-16T02:52:55;87857.81;;;11.68;60.33
21623;BME280;10973;46.706;12.340;2022-10-16T02:55:22;87861.91;;;11.66;60.55
21623;BME280;10973;46.706;12.340;2022-10-16T02:57:50;87863.41;;;11.63;60.33
21623;BME280;10973;46.706;12.340;2022-10-16T03:00:18;87872.81;;;11.61;60.56
21623;BME280;10973;46.706;12.340;2022-10-16T03:02:46;87865.63;;;11.58;60.68
21623;BME280;10973;46.706;12.340;2022-10-16T03:05:14;87864.84;;;11.54;60.85
21623;BME280;10973;46.706;12.340;2022-10-16T03:07:41;87867.47;;;11.54;60.82
21623;BME280;10973;46.706;12.340;2022-10-16T03:10:09;87877.28;;;11.53;61.00
21623;BME280;10973;46.706;12.340;2022-10-16T03:12:36;87882.16;;;11.51;60.87
21623;BME280;10973;46.706;12.340;2022-10-16T03:15:04;87872.75;;;11.54;60.88
21623;BME280;10973;46.706;12.340;2022-10-16T03:17:32;87874.63;;;11.53;61.04
21623;BME280;10973;46.706;12.340;2022-10-16T03:19:59;87865.94;;;11.53;60.98
21623;BME280;10973;46.706;12.340;2022-10-16T03:22:27;87876.19;;;11.58;61.02
21623;BME280;10973;46.706;12.340;2022-10-16T03:24:54;87878.44;;;11.56;60.97
21623;BME280;10973;46.706;12.340;2022-10-16T03:27:21;87878.06;;;11.57;61.12
21623;BME280;10973;46.706;12.340;2022-10-16T03:29:49;87883.72;;;11.56;61.11
21623;BME280;10973;46.706;12.340;2022-10-16T03:32:16;87870.13;;;11.54;61.21
21623;BME280;10973;46.706;12.340;2022-10-16T03:34:43;87879.91;;;11.53;61.25
21623;BME280;10973;46.706;12.340;2022-10-16T03:37:11;87878.78;;;11.54;61.17
21623;BME280;10973;46.706;12.340;2022-10-16T03:39:38;87880.69;;;11.57;61.19
21623;BME280;10973;46.706;12.340;2022-10-16T03:42:05;87880.69;;;11.57;61.13
21623;BME280;10973;46.706;12.340;2022-10-16T03:44:32;87888.63;;;11.57;61.34
21623;BME280;10973;46.706;12.340;2022-10-16T03:46:59;87883.34;;;11.57;61.34
21623;BME280;10973;46.706;12.340;2022-10-16T03:49:26;87882.19;;;11.55;61.39
21623;BME280;10973;46.706;12.340;2022-10-16T03:51:54;87877.28;;;11.53;61.26
21623;BME280;10973;46.706;12.340;2022-10-16T03:54:21;87879.91;;;11.53;61.49
21623;BME280;10973;46.706;12.340;2022-10-16T03:56:48;87881.06;;;11.56;61.32
21623;BME280;10973;46.706;12.340;2022-10-16T03:59:16;87872.00;;;11.57;61.20
21623;BME280;10973;46.706;12.340;2022-10-16T04:01:43;87865.63;;;11.58;61.19
21623;BME280;10973;46.706;12.340;2022-10-16T04:04:10;87861.84;;;11.59;60.95
21623;BME280;10973;46.706;12.340;2022-10-16T04:06:37;87855.84;;;11.58;61.20
21623;BME280;10973;46.706;12.340;2022-10-16T04:09:04;87860.34;;;11.58;60.91
21623;BME280;10973;46.706;12.340;2022-10-16T04:11:32;87857.72;;;11.58;61.10
21623;BME280;10973;46.706;12.340;2022-10-16T04:13:59;87852.81;;;11.56;61.15
21623;BME280;10973;46.706;12.340;2022-10-16T04:16:26;87847.88;;;11.55;60.94
21623;BME280;10973;46.706;12.340;2022-10-16T04:18:53;87836.91;;;11.49;60.92
21623;BME280;10973;46.706;12.340;2022-10-16T04:21:21;87830.47;;;11.46;60.65
21623;BME280;10973;46.706;12.340;2022-10-16T04:23:48;87839.81;;;11.40;60.91
21623;BME280;10973;46.706;12.340;2022-10-16T04:26:15;87843.91;;;11.34;60.87
21623;BME280;10973;46.706;12.340;2022-10-16T04:28:43;87847.25;;;11.31;60.82
21623;BME280;10973;46.706;12.340;2022-10-16T04:31:10;87844.97;;;11.26;60.60
21623;BME280;10973;46.706;12.340;2022-10-16T04:33:38;87856.63;;;11.22;60.62
21623;BME280;10973;46.706;12.340;2022-10-16T04:36:05;87865.94;;;11.12;60.97
21623;BME280;10973;46.706;12.340;2022-10-16T04:38:32;87870.44;;;11.12;60.60
21623;BME280;10973;46.706;12.340;2022-10-16T04:41:00;87858.72;;;11.09;60.54
21623;BME280;10973;46.706;12.340;2022-10-16T04:43:27;87863.97;;;11.06;60.46
21623;BME280;10973;46.706;12.340;2022-10-16T04:45:54;87866.53;;;10.99;60.10
21623;BME280;10973;46.706;12.340;2022-10-16T04:48:22;87871.41;;;10.97;60.38
21623;BME280;10973;46.706;12.340;2022-10-16T04:50:49;87875.53;;;10.94;60.19
21623;BME280;10973;46.706;12.340;2022-10-16T04:53:21;87874.28;;;10.88;60.11
21623;BME280;10973;46.706;12.340;2022-10-16T04:55:49;87879.19;;;10.86;60.14
21623;BME280;10973;46.706;12.340;2022-10-16T04:58:17;87875.34;;;10.80;60.09
21623;BME280;10973;46.706;12.340;2022-10-16T05:00:45;87877.59;;;10.78;60.13
21623;BME280;10973;46.706;12.340;2022-10-16T05:03:13;87878.34;;;10.79;60.20
21623;BME280;10973;46.706;12.340;2022-10-16T05:05:45;87883.63;;;10.79;59.99
21623;BME280;10973;46.706;12.340;2022-10-16T05:08:14;87885.50;;;10.78;60.35
21623;BME280;10973;46.706;12.340;2022-10-16T05:10:43;87888.13;;;10.78;60.28
21623;BME280;10973;46.706;12.340;2022-10-16T05:13:11;87887.34;;;10.74;60.52
21623;BME280;10973;46.706;12.340;2022-10-16T05:15:39;87881.28;;;10.73;60.64
21623;BME280;10973;46.706;12.340;2022-10-16T05:18:06;87886.56;;;10.73;60.53
21623;BME280;10973;46.706;12.340;2022-10-16T05:20:33;87881.28;;;10.73;60.86
21623;BME280;10973;46.706;12.340;2022-10-16T05:23:01;87885.03;;;10.72;60.87
21623;BME280;10973;46.706;12.340;2022-10-16T05:25:28;87891.13;;;10.77;60.73
21623;BME280;10973;46.706;12.340;2022-10-16T05:27:55;87889.91;;;10.70;60.63
21623;BME280;10973;46.706;12.340;2022-10-16T05:30:23;87884.59;;;10.67;60.60
21623;BME280;10973;46.706;12.340;2022-10-16T05:32:51;87885.31;;;10.64;60.41
21623;BME280;10973;46.706;12.340;2022-10-16T05:35:19;87884.50;;;10.60;60.31
21623;BME280;10973;46.706;12.340;2022-10-16T05:37:47;87895.75;;;10.57;60.22
21623;BME280;10973;46.706;12.340;2022-10-16T05:40:15;87902.88;;;10.53;60.32
21623;BME280;10973;46.706;12.340;2022-10-16T05:42:42;87906.19;;;10.50;60.44
21623;BME280;10973;46.706;12.340;2022-10-16T05:45:11;87906.53;;;10.45;60.46
21623;BME280;10973;46.706;12.340;2022-10-16T05:47:38;87909.50;;;10.43;60.40
21623;BME280;10973;46.706;12.340;2022-10-16T05:50:06;87918.16;;;10.44;60.05
21623;BME280;10973;46.706;12.340;2022-10-16T05:52:34;87912.03;;;10.36;60.28
21623;BME280;10973;46.706;12.340;2022-10-16T05:55:01;87917.66;;;10.35;60.37
21623;BME280;10973;46.706;12.340;2022-10-16T05:57:28;87923.63;;;10.32;60.22
21623;BME280;10973;46.706;12.340;2022-10-16T05:59:56;87933.38;;;10.28;60.26
21623;BME280;10973;46.706;12.340;2022-10-16T06:02:23;87924.28;;;10.25;60.33
21623;BME280;10973;46.706;12.340;2022-10-16T06:04:53;87931.44;;;10.25;60.24
21623;BME280;10973;46.706;12.340;2022-10-16T06:07:22;87937.44;;;10.22;60.19
21623;BME280;10973;46.706;12.340;2022-10-16T06:09:52;87933.25;;;10.21;60.34
21623;BME280;10973;46.706;12.340;2022-10-16T06:12:20;87932.84;;;10.19;60.47
21623;BME280;10973;46.706;12.340;2022-10-16T06:14:47;87934.69;;;10.15;60.13
21623;BME280;10973;46.706;12.340;2022-10-16T06:17:14;87940.75;;;10.19;60.17
21623;BME280;10973;46.706;12.340;2022-10-16T06:19:42;87937.03;;;10.20;60.46
21623;BME280;10973;46.706;12.340;2022-10-16T06:22:09;87943.44;;;10.22;60.26
21623;BME280;10973;46.706;12.340;2022-10-16T06:24:36;87946.84;;;10.23;60.23
21623;BME280;10973;46.706;12.340;2022-10-16T06:27:04;87944.19;;;10.23;60.31
21623;BME280;10973;46.706;12.340;2022-10-16T06:29:31;87950.22;;;10.23;60.28
21623;BME280;10973;46.706;12.340;2022-10-16T06:31:59;87956.25;;;10.24;60.52
21623;BME280;10973;46.706;12.340;2022-10-16T06:34:26;87958.16;;;10.27;60.25
21623;BME280;10973;46.706;12.340;2022-10-16T06:36:54;87958.16;;;10.27;60.26
21623;BME280;10973;46.706;12.340;2022-10-16T06:39:21;87961.53;;;10.24;60.30
21623;BME280;10973;46.706;12.340;2022-10-16T06:41:48;87966.84;;;10.27;60.42
21623;BME280;10973;46.706;12.340;2022-10-16T06:44:15;87967.63;;;10.28;60.53
21623;BME280;10973;46.706;12.340;2022-10-16T06:46:42;87971.41;;;10.30;60.58
21623;BME280;10973;46.706;12.340;2022-10-16T06:49:09;87975.63;;;10.35;60.51
21623;BME280;10973;46.706;12.340;2022-10-16T06:51:37;87978.25;;;10.35;60.58
21623;BME280;10973;46.706;12.340;2022-10-16T06:54:09;87976.09;;;10.40;60.65
21623;BME280;10973;46.706;12.340;2022-10-16T06:56:36;87972.41;;;10.45;60.73
21623;BME280;10973;46.706;12.340;2022-10-16T06:59:04;87977.72;;;10.48;60.75
21623;BME280;10973;46.706;12.340;2022-10-16T07:01:32;87979.69;;;10.55;60.71
21623;BME280;10973;46.706;12.340;2022-10-16T07:04:01;87980.91;;;10.61;60.68
21623;BME280;10973;46.706;12.340;2022-10-16T07:06:33;87979.09;;;10.65;60.39
21623;BME280;10973;46.706;12.340;2022-10-16T07:09:06;87975.44;;;10.73;60.49
21623;BME280;10973;46.706;12.340;2022-10-16T07:11:35;87987.63;;;10.85;60.69
21623;BME280;10973;46.706;12.340;2022-10-16T07:14:04;87992.31;;;10.95;60.71
21623;BME280;10973;46.706;12.340;2022-10-16T07:16:32;87990.09;;;11.00;60.84
21623;BME280;10973;46.706;12.340;2022-10-16T07:19:02;87993.25;;;11.09;60.80
21623;BME280;10973;46.706;12.340;2022-10-16T07:21:32;87985.41;;;11.16;60.83
21623;BME280;10973;46.706;12.340;2022-10-16T07:24:00;87991.19;;;11.25;60.77
21623;BME280;10973;46.706;12.340;2022-10-16T07:26:31;87993.53;;;11.34;60.92
21623;BME280;10973;46.706;12.340;2022-10-16T07:29:00;87991.06;;;11.44;61.09
21623;BME280;10973;46.706;12.340;2022-10-16T07:31:27;87989.63;;;11.54;61.24
21623;BME280;10973;46.706;12.340;2022-10-16T07:33:58;87993.19;;;11.65;61.05
21623;BME280;10973;46.706;12.340;2022-10-16T07:36:25;87991.38;;;11.73;61.17
21623;BME280;10973;46.706;12.340;2022-10-16T07:38:52;87995.25;;;11.82;60.99
21623;BME280;10973;46.706;12.340;2022-10-16T07:41:26;87997.59;;;11.91;61.05
21623;BME280;10973;46.706;12.340;2022-10-16T07:43:56;88001.09;;;11.98;61.47
21623;BME280;10973;46.706;12.340;2022-10-16T07:46:23;87997.03;;;12.08;61.42
21623;BME280;10973;46.706;12.340;2022-10-16T07:48:51;87994.47;;;12.15;61.02
21623;BME280;10973;46.706;12.340;2022-10-16T07:51:22;87997.56;;;12.24;61.18
21623;BME280;10973;46.706;12.340;2022-10-16T07:53:50;87990.81;;;12.34;60.66
21623;BME280;10973;46.706;12.340;2022-10-16T07:56:19;87990.53;;;12.42;60.50
21623;BME280;10973;46.706;12.340;2022-10-16T07:58:48;87993.25;;;12.49;60.21
21623;BME280;10973;46.706;12.340;2022-10-16T08:01:17;87988.38;;;12.55;60.58
21623;BME280;10973;46.706;12.340;2022-10-16T08:03:50;87988.09;;;12.67;60.56
21623;BME280;10973;46.706;12.340;2022-10-16T08:06:20;87990.41;;;12.72;60.00
21623;BME280;10973;46.706;12.340;2022-10-16T08:08:56;87998.00;;;12.80;59.74
21623;BME280;10973;46.706;12.340;2022-10-16T08:11:23;88001.44;;;12.88;59.48
21623;BME280;10973;46.706;12.340;2022-10-16T08:13:50;88005.66;;;12.96;58.90
21623;BME280;10973;46.706;12.340;2022-10-16T08:16:18;88003.41;;;13.02;59.02
21623;BME280;10973;46.706;12.340;2022-10-16T08:18:45;87999.34;;;13.08;58.73
21623;BME280;10973;46.706;12.340;2022-10-16T08:21:16;88008.84;;;13.16;58.41
21623;BME280;10973;46.706;12.340;2022-10-16T08:23:48;88003.53;;;13.16;58.66
21623;BME280;10973;46.706;12.340;2022-10-16T08:26:25;88008.16;;;13.26;58.82
21623;BME280;10973;46.706;12.340;2022-10-16T08:28:54;88007.81;;;13.31;58.81
21623;BME280;10973;46.706;12.340;2022-10-16T08:31:22;88004.81;;;13.39;58.19
21623;BME280;10973;46.706;12.340;2022-10-16T08:33:49;88007.13;;;13.44;58.14
21623;BME280;10973;46.706;12.340;2022-10-16T08:36:16;88010.53;;;13.48;58.06
21623;BME280;10973;46.706;12.340;2022-10-16T08:38:47;88012.06;;;13.56;57.74
21623;BME280;10973;46.706;12.340;2022-10-16T08:47:18;88001.94;;;13.73;56.90
21623;BME280;10973;46.706;12.340;2022-10-16T08:50:02;88001.97;;;13.80;56.85
21623;BME280;10973;46.706;12.340;2022-10-16T08:52:41;88005.41;;;13.87;56.36
21623;BME280;10973;46.706;12.340;2022-10-16T08:55:38;88003.91;;;13.93;56.40
21623;BME280;10973;46.706;12.340;2022-10-16T08:58:21;88007.69;;;13.99;56.24
21623;BME280;10973;46.706;12.340;2022-10-16T09:00:58;88003.56;;;14.09;56.43
21623;BME280;10973;46.706;12.340;2022-10-16T09:12:25;88004.78;;;14.36;55.78
21623;BME280;10973;46.706;12.340;2022-10-16T09:15:32;88008.22;;;14.44;55.67
21623;BME280;10973;46.706;12.340;2022-10-16T09:23:29;88000.28;;;14.65;55.22
21623;BME280;10973;46.706;12.340;2022-10-16T09:25:59;87997.22;;;14.70;55.11
21623;BME280;10973;46.706;12.340;2022-10-16T09:28:26;87989.28;;;14.73;54.93
21623;BME280;10973;46.706;12.340;2022-10-16T09:30:54;87992.72;;;14.81;54.56
21623;BME280;10973;46.706;12.340;2022-10-16T09:33:32;87990.03;;;14.88;54.48
21623;BME280;10973;46.706;12.340;2022-10-16T09:36:03;87993.44;;;14.95;54.37
21623;BME280;10973;46.706;12.340;2022-10-16T09:38:35;87990.41;;;15.00;54.12
21623;BME280;10973;46.706;12.340;2022-10-16T09:41:21;87985.84;;;15.05;53.95
21623;BME280;10973;46.706;12.340;2022-10-16T09:43:59;87993.44;;;15.06;53.65
21623;BME280;10973;46.706;12.340;2022-10-16T09:46:36;87988.50;;;15.12;53.16
21623;BME280;10973;46.706;12.340;2022-10-16T09:51:45;87989.25;;;15.19;53.25
21623;BME280;10973;46.706;12.340;2022-10-16T09:54:19;87983.56;;;15.28;53.21
21623;BME280;10973;46.706;12.340;2022-10-16T09:56:48;87982.38;;;15.36;52.99
21623;BME280;10973;46.706;12.340;2022-10-16T09:59:18;87978.56;;;15.40;52.75
21623;BME280;10973;46.706;12.340;2022-10-16T10:01:53;87985.03;;;15.50;52.84
21623;BME280;10973;46.706;12.340;2022-10-16T10:04:23;87982.75;;;15.55;52.71
21623;BME280;10973;46.706;12.340;2022-10-16T10:06:56;87983.88;;;15.65;52.43
21623;BME280;10973;46.706;12.340;2022-10-16T10:09:39;87979.66;;;15.67;52.36
21623;BME280;10973;46.706;12.340;2022-10-16T10:12:25;87978.50;;;15.72;52.43
21623;BME280;10973;46.706;12.340;2022-10-16T10:15:06;87975.47;;;15.77;52.56
21623;BME280;10973;46.706;12.340;2022-10-16T10:17:53;87974.31;;;15.82;52.12
21623;BME280;10973;46.706;12.340;2022-10-16T10:20:29;87973.50;;;15.92;51.88
21623;BME280;10973;46.706;12.340;2022-10-16T10:22:57;87978.03;;;15.98;51.82
21623;BME280;10973;46.706;12.340;2022-10-16T10:36:49;87971.00;;;16.36;51.50
21623;BME280;10973;46.706;12.340;2022-10-16T10:39:38;87973.22;;;16.44;50.72
21623;BME280;10973;46.706;12.340;2022-10-16T10:42:31;87962.94;;;16.54;50.45
21623;BME280;10973;46.706;12.340;2022-10-16T10:45:21;87970.50;;;16.62;50.36
21623;BME280;10973;46.706;12.340;2022-10-16T11:05:37;87943.66;;;19.98;44.20
21623;BME280;10973;46.706;12.340;2022-10-16T11:07:38;87942.66;;;21.80;39.83
21623;BME280;10973;46.706;12.340;2022-10-16T11:10:26;87930.63;;;23.46;36.96
21623;BME280;10973;46.706;12.340;2022-10-16T11:13:10;87933.38;;;24.79;34.07
21623;BME280;10973;46.706;12.340;2022-10-16T11:15:45;87930.97;;;25.92;32.05
21623;BME280;10973;46.706;12.340;2022-10-16T11:21:43;87930.03;;;27.54;29.19
21623;BME280;10973;46.706;12.340;2022-10-16T11:24:45;87921.31;;;28.31;29.15
21623;BME280;10973;46.706;12.340;2022-10-16T11:27:20;87919.41;;;28.84;28.20
21623;BME280;10973;46.706;12.340;2022-10-16T11:29:58;87915.22;;;29.27;27.57
21623;BME280;10973;46.706;12.340;2022-10-16T11:32:36;87917.56;;;29.48;26.73
21623;BME280;10973;46.706;12.340;2022-10-16T11:35:21;87913.50;;;29.73;26.97
21623;BME280;10973;46.706;12.340;2022-10-16T11:37:52;87909.25;;;29.87;26.43
21623;BME280;10973;46.706;12.340;2022-10-16T11:40:36;87908.81;;;30.08;26.33
21623;BME280;10973;46.706;12.340;2022-10-16T11:43:19;87908.75;;;30.23;26.50
21623;BME280;10973;46.706;12.340;2022-10-16T11:45:57;87905.38;;;30.28;26.43
21623;BME280;10973;46.706;12.340;2022-10-16T11:48:37;87906.84;;;30.29;26.50
21623;BME280;10973;46.706;12.340;2022-10-16T11:57:19;87895.44;;;29.55;27.02
21623;BME280;10973;46.706;12.340;2022-10-16T12:00:02;87894.44;;;29.38;27.65
21623;BME280;10973;46.706;12.340;2022-10-16T12:02:59;87889.56;;;29.13;27.53
21623;BME280;10973;46.706;12.340;2022-10-16T12:08:15;87886.56;;;28.67;27.88
21623;BME280;10973;46.706;12.340;2022-10-16T12:10:46;87891.22;;;28.28;29.12
21623;BME280;10973;46.706;12.340;2022-10-16T12:13:33;87878.47;;;28.05;28.19
21623;BME280;10973;46.706;12.340;2022-10-16T12:18:44;87880.06;;;27.55;28.43
21623;BME280;10973;46.706;12.340;2022-10-16T12:21:17;87880.31;;;27.43;28.56
21623;BME280;10973;46.706;12.340;2022-10-16T12:23:56;87876.75;;;27.28;28.19
21623;BME280;10973;46.706;12.340;2022-10-16T12:26:32;87876.50;;;27.17;29.36
21623;BME280;10973;46.706;12.340;2022-10-16T12:29:27;87877.47;;;26.96;29.68
21623;BME280;10973;46.706;12.340;2022-10-16T12:31:56;87880.78;;;26.81;30.70
21623;BME280;10973;46.706;12.340;2022-10-16T12:34:42;87881.41;;;26.76;29.63
21623;BME280;10973;46.706;12.340;2022-10-16T12:37:21;87885.91;;;26.79;29.67
21623;BME280;10973;46.706;12.340;2022-10-16T12:39:51;87882.31;;;26.82;29.71
21623;BME280;10973;46.706;12.340;2022-10-16T12:44:56;87882.31;;;26.73;29.43
21623;BME280;10973;46.706;12.340;2022-10-16T12:47:37;87882.31;;;26.64;28.87
21623;BME280;10973;46.706;12.340;2022-10-16T12:50:35;87883.53;;;26.54;29.29
21623;BME280;10973;46.706;12.340;2022-10-16T12:53:21;87890.31;;;26.32;28.99
21623;BME280;10973;46.706;12.340;2022-10-16T13:00:02;87881.41;;;25.86;29.65
21623;BME280;10973;46.706;12.340;2022-10-16T13:06:18;87886.81;;;25.68;31.07
21623;BME280;10973;46.706;12.340;2022-10-16T13:09:06;87890.72;;;25.67;30.58
21623;BME280;10973;46.706;12.340;2022-10-16T13:12:18;87890.84;;;25.63;30.55
21623;BME280;10973;46.706;12.340;2022-10-16T13:23:49;87902.31;;;25.36;31.49
21623;BME280;10973;46.706;12.340;2022-10-16T13:29:02;87917.72;;;25.27;31.29
21623;BME280;10973;46.706;12.340;2022-10-16T13:31:31;87912.00;;;25.25;30.20
21623;BME280;10973;46.706;12.340;2022-10-16T13:34:00;87916.94;;;25.26;29.57
21623;BME280;10973;46.706;12.340;2022-10-16T13:36:48;87909.16;;;25.28;31.66
21623;BME280;10973;46.706;12.340;2022-10-16T13:39:30;87913.09;;;25.36;31.01
21623;BME280;10973;46.706;12.340;2022-10-16T13:44:53;87914.88;;;25.30;29.99
21623;BME280;10973;46.706;12.340;2022-10-16T13:47:27;87913.41;;;25.38;30.45
21623;BME280;10973;46.706;12.340;2022-10-16T13:50:06;87909.25;;;25.46;30.49
21623;BME280;10973;46.706;12.340;2022-10-16T13:52:33;87915.28;;;25.60;30.25
21623;BME280;10973;46.706;12.340;2022-10-16T13:55:00;87910.34;;;25.67;30.85
21623;BME280;10973;46.706;12.340;2022-10-16T13:57:28;87916.50;;;25.77;30.22
21623;BME280;10973;46.706;12.340;2022-10-16T13:59:56;87917.13;;;25.81;30.48
21623;BME280;10973;46.706;12.340;2022-10-16T14:02:35;87911.41;;;25.79;30.26
21623;BME280;10973;46.706;12.340;2022-10-16T14:05:09;87923.13;;;25.76;29.91
21623;BME280;10973;46.706;12.340;2022-10-16T14:07:38;87917.72;;;25.76;29.62
21623;BME280;10973;46.706;12.340;2022-10-16T14:10:20;87932.88;;;25.73;29.42
21623;BME280;10973;46.706;12.340;2022-10-16T14:12:58;87925.94;;;25.63;29.88
21623;BME280;10973;46.706;12.340;2022-10-16T14:15:26;87928.50;;;25.58;29.34
21623;BME280;10973;46.706;12.340;2022-10-16T14:17:55;87929.97;;;25.59;29.76
21623;BME280;10973;46.706;12.340;2022-10-16T14:20:29;87928.50;;;25.58;29.94
21623;BME280;10973;46.706;12.340;2022-10-16T14:23:03;87932.69;;;25.59;29.77
21623;BME280;10973;46.706;12.340;2022-10-16T14:25:32;87933.88;;;25.48;29.94
21623;BME280;10973;46.706;12.340;2022-10-16T14:28:21;87931.53;;;25.38;29.76
21623;BME280;10973;46.706;12.340;2022-10-16T14:30:59;87941.34;;;25.14;30.21
21623;BME280;10973;46.706;12.340;2022-10-16T14:39:19;87937.69;;;23.65;31.79
21623;BME280;10973;46.706;12.340;2022-10-16T14:41:50;87948.38;;;23.18;32.66
21623;BME280;10973;46.706;12.340;2022-10-16T14:44:20;87947.72;;;22.77;33.47
21623;BME280;10973;46.706;12.340;2022-10-16T14:46:50;87960.41;;;22.35;33.93
21623;BME280;10973;46.706;12.340;2022-10-16T14:49:20;87957.81;;;22.02;34.50
21623;BME280;10973;46.706;12.340;2022-10-16T14:51:48;87954.25;;;21.77;34.42
21623;BME280;10973;46.706;12.340;2022-10-16T14:54:18;87959.72;;;21.57;34.90
21623;BME280;10973;46.706;12.340;2022-10-16T14:56:56;87963.25;;;21.38;35.21
21623;BME280;10973;46.706;12.340;2022-10-16T14:59:38;87967.13;;;21.21;35.65
21623;BME280;10973;46.706;12.340;2022-10-16T15:04:45;87966.63;;;20.90;36.16
21623;BME280;10973;46.706;12.340;2022-10-16T15:07:12;87966.88;;;20.80;36.55
21623;BME280;10973;46.706;12.340;2022-10-16T15:09:40;87966.59;;;20.74;36.98
21623;BME280;10973;46.706;12.340;2022-10-16T15:12:12;87975.28;;;20.62;37.44
21623;BME280;10973;46.706;12.340;2022-10-16T15:14:39;87970.09;;;20.55;37.45
21623;BME280;10973;46.706;12.340;2022-10-16T15:17:10;87974.16;;;20.43;37.98